createdAt,value
2018-01-22T00:00:19.695Z,3.24
2018-01-22T00:02:54.818Z,3.18
2018-01-22T00:05:29.355Z,3.22
2018-01-22T00:08:04.330Z,3.13
2018-01-22T00:10:39.486Z,3.11
2018-01-22T00:13:14.847Z,3.10
2018-01-22T00:15:50.506Z,3.06
2018-01-22T00:18:25.278Z,3.03
2018-01-22T00:21:00.591Z,3.05
2018-01-22T00:23:35.446Z,3.03
2018-01-22T00:26:10.447Z,3.04
2018-01-22T00:28:45.790Z,3.02
2018-01-22T00:31:20.675Z,3.03
2018-01-22T00:33:55.598Z,2.97
2018-01-22T00:36:30.811Z,2.94
2018-01-22T00:39:06.479Z,2.96
2018-01-22T00:41:41.383Z,2.98
2018-01-22T00:44:16.726Z,2.94
2018-01-22T00:46:51.492Z,2.93
2018-01-22T00:49:26.503Z,2.91
2018-01-22T00:52:01.931Z,2.89
2018-01-22T00:54:36.696Z,2.87
2018-01-22T00:57:11.837Z,2.93
2018-01-22T00:59:46.505Z,2.86
2018-01-22T01:02:21.648Z,2.87
2018-01-22T01:04:56.311Z,2.92
2018-01-22T01:07:31.328Z,2.99
2018-01-22T01:10:06.334Z,3.01
2018-01-22T01:12:40.902Z,3.05
2018-01-22T01:15:16.410Z,2.94
2018-01-22T01:17:51.411Z,2.90
2018-01-22T01:20:26.305Z,2.90
2018-01-22T01:23:01.470Z,2.89
2018-01-22T01:25:36.455Z,2.96
2018-01-22T01:28:11.659Z,2.96
2018-01-22T01:30:46.583Z,2.88
2018-01-22T01:33:21.111Z,2.85
2018-01-22T01:35:55.602Z,2.85
2018-01-22T01:38:30.710Z,2.96
2018-01-22T01:41:05.760Z,2.94
2018-01-22T01:43:40.602Z,2.95
2018-01-22T01:46:15.802Z,2.98
2018-01-22T01:49:01.894Z,3.03
2018-01-22T01:51:36.270Z,3.07
2018-01-22T01:54:11.788Z,3.09
2018-01-22T01:56:46.606Z,3.09
2018-01-22T01:59:21.598Z,3.13
2018-01-22T02:01:56.803Z,3.23
2018-01-22T02:04:31.762Z,3.26
2018-01-22T02:07:07.037Z,3.21
2018-01-22T02:09:42.687Z,3.18
2018-01-22T02:12:17.684Z,3.16
2018-01-22T02:14:52.699Z,3.18
2018-01-22T02:17:27.827Z,3.17
2018-01-22T02:20:02.243Z,3.15
2018-01-22T02:22:37.604Z,3.20
2018-01-22T02:25:12.854Z,3.23
2018-01-22T02:27:47.903Z,3.25
2018-01-22T02:30:22.601Z,3.31
2018-01-22T02:32:58.688Z,3.30
2018-01-22T02:35:33.777Z,3.29
2018-01-22T02:38:08.769Z,3.28
2018-01-22T02:40:44.062Z,3.36
2018-01-22T02:43:19.551Z,3.40
2018-01-22T02:45:54.248Z,3.38
2018-01-22T02:48:29.513Z,3.38
2018-01-22T02:51:05.037Z,3.45
2018-01-22T02:53:39.912Z,3.46
2018-01-22T02:56:15.004Z,3.36
2018-01-22T02:58:50.171Z,3.39
2018-01-22T03:01:24.873Z,3.28
2018-01-22T03:04:00.348Z,3.28
2018-01-22T03:06:35.107Z,3.24
2018-01-22T03:09:10.863Z,3.22
2018-01-22T03:11:45.303Z,3.24
2018-01-22T03:14:20.750Z,3.30
2018-01-22T03:16:55.755Z,3.40
2018-01-22T03:19:30.927Z,3.42
2018-01-22T03:22:06.495Z,3.39
2018-01-22T03:24:41.167Z,3.39
2018-01-22T03:27:15.835Z,3.36
2018-01-22T03:29:50.779Z,3.29
2018-01-22T03:32:25.867Z,3.26
2018-01-22T03:35:01.073Z,3.24
2018-01-22T03:37:36.229Z,3.25
2018-01-22T03:40:11.186Z,3.27
2018-01-22T03:42:46.016Z,3.36
2018-01-22T03:45:21.151Z,3.38
2018-01-22T03:47:56.369Z,3.41
2018-01-22T03:50:31.835Z,3.39
2018-01-22T03:53:06.810Z,3.33
2018-01-22T03:55:41.884Z,3.29
2018-01-22T03:58:17.035Z,3.32
2018-01-22T04:00:52.023Z,3.34
2018-01-22T04:03:27.018Z,3.38
2018-01-22T04:06:02.228Z,3.42
2018-01-22T04:08:37.725Z,3.47
2018-01-22T04:11:13.073Z,3.51
2018-01-22T04:13:47.881Z,3.43
2018-01-22T04:16:22.883Z,3.45
2018-01-22T04:18:59.060Z,3.46
2018-01-22T04:21:34.404Z,3.46
2018-01-22T04:24:09.751Z,3.45
2018-01-22T04:26:44.825Z,3.43
2018-01-22T04:29:19.970Z,3.41
2018-01-22T04:31:55.030Z,3.44
2018-01-22T04:34:29.802Z,3.44
2018-01-22T04:37:05.184Z,3.52
2018-01-22T04:39:40.063Z,3.51
2018-01-22T04:42:14.574Z,3.46
2018-01-22T04:44:49.926Z,3.42
2018-01-22T04:47:25.267Z,3.44
2018-01-22T04:50:00.258Z,3.47
2018-01-22T04:52:35.340Z,3.50
2018-01-22T04:55:10.463Z,3.51
2018-01-22T04:57:45.115Z,3.48
2018-01-22T05:00:20.259Z,3.50
2018-01-22T05:02:55.447Z,3.49
2018-01-22T05:05:30.428Z,3.46
2018-01-22T05:08:05.527Z,3.47
2018-01-22T05:10:40.539Z,3.31
2018-01-22T05:13:16.267Z,3.30
2018-01-22T05:15:51.171Z,3.22
2018-01-22T05:18:26.139Z,3.11
2018-01-22T05:21:01.299Z,3.06
2018-01-22T05:23:36.179Z,2.95
2018-01-22T05:26:10.944Z,2.98
2018-01-22T05:28:46.166Z,2.91
2018-01-22T05:31:21.091Z,2.89
2018-01-22T05:33:56.175Z,2.97
2018-01-22T05:36:31.166Z,3.01
2018-01-22T05:39:06.331Z,2.98
2018-01-22T05:41:40.918Z,2.97
2018-01-22T05:44:16.199Z,2.97
2018-01-22T05:46:51.256Z,3.01
2018-01-22T05:49:26.198Z,3.11
2018-01-22T05:52:01.458Z,3.10
2018-01-22T05:54:36.246Z,3.16
2018-01-22T05:57:11.027Z,3.15
2018-01-22T05:59:46.175Z,3.23
2018-01-22T06:02:21.070Z,3.27
2018-01-22T06:04:56.271Z,3.22
2018-01-22T06:07:31.267Z,3.21
2018-01-22T06:10:06.482Z,3.23
2018-01-22T06:12:41.234Z,3.24
2018-01-22T06:15:16.295Z,3.28
2018-01-22T06:17:50.469Z,3.24
2018-01-22T06:20:25.466Z,3.25
2018-01-22T06:23:00.965Z,3.24
2018-01-22T06:25:35.427Z,3.30
2018-01-22T06:28:10.562Z,3.21
2018-01-22T06:30:45.870Z,3.16
2018-01-22T06:33:20.839Z,3.16
2018-01-22T06:35:56.380Z,3.17
2018-01-22T06:38:31.622Z,3.22
2018-01-22T06:41:06.660Z,3.24
2018-01-22T06:43:40.911Z,3.27
2018-01-22T06:46:15.510Z,3.24
2018-01-22T06:48:50.499Z,3.18
2018-01-22T06:51:25.546Z,3.16
2018-01-22T06:54:00.612Z,3.10
2018-01-22T06:56:35.509Z,3.14
2018-01-22T06:59:09.931Z,3.22
2018-01-22T07:01:45.286Z,3.11
2018-01-22T07:04:20.309Z,3.09
2018-01-22T07:06:54.771Z,3.01
2018-01-22T07:09:29.256Z,2.95
2018-01-22T07:12:04.544Z,2.99
2018-01-22T07:14:39.542Z,3.14
2018-01-22T07:17:14.792Z,3.21
2018-01-22T07:19:49.546Z,3.21
2018-01-22T07:22:24.674Z,3.23
2018-01-22T07:24:59.783Z,3.27
2018-01-22T07:27:34.854Z,3.28
2018-01-22T07:30:11.356Z,3.40
2018-01-22T07:32:46.546Z,3.52
2018-01-22T07:35:21.849Z,3.51
2018-01-22T07:37:57.403Z,3.46
2018-01-22T07:40:32.455Z,3.44
2018-01-22T07:43:07.643Z,3.57
2018-01-22T07:45:42.617Z,3.49
2018-01-22T07:48:17.815Z,3.30
2018-01-22T07:50:52.799Z,3.17
2018-01-22T07:53:27.766Z,3.19
2018-01-22T07:56:03.384Z,3.15
2018-01-22T07:58:38.519Z,3.18
2018-01-22T08:01:13.447Z,3.21
2018-01-22T08:03:48.586Z,3.20
2018-01-22T08:06:23.668Z,3.21
2018-01-22T08:08:59.795Z,3.22
2018-01-22T08:11:34.539Z,3.26
2018-01-22T08:14:09.614Z,3.38
2018-01-22T08:16:44.590Z,3.42
2018-01-22T08:19:18.982Z,3.40
2018-01-22T08:21:54.561Z,3.41
2018-01-22T08:24:29.566Z,3.44
2018-01-22T08:27:04.784Z,3.56
2018-01-22T08:29:40.051Z,3.67
2018-01-22T08:32:14.752Z,3.69
2018-01-22T08:34:49.672Z,3.73
2018-01-22T08:37:24.460Z,3.78
2018-01-22T08:39:59.963Z,3.83
2018-01-22T08:42:34.558Z,3.86
2018-01-22T08:45:09.835Z,3.91
2018-01-22T08:47:45.116Z,3.86
2018-01-22T08:50:20.555Z,3.91
2018-01-22T08:52:55.402Z,3.89
2018-01-22T08:55:29.874Z,3.94
2018-01-22T08:58:04.651Z,3.82
2018-01-22T09:00:39.728Z,3.65
2018-01-22T09:03:14.780Z,3.66
2018-01-22T09:05:49.992Z,3.79
2018-01-22T09:08:25.247Z,3.92
2018-01-22T09:11:00.824Z,4.04
2018-01-22T09:13:35.794Z,4.11
2018-01-22T09:16:11.042Z,4.10
2018-01-22T09:18:46.535Z,4.14
2018-01-22T09:21:21.109Z,4.22
2018-01-22T09:23:56.103Z,4.31
2018-01-22T09:26:31.065Z,4.38
2018-01-22T09:29:06.044Z,4.42
2018-01-22T09:31:41.218Z,4.53
2018-01-22T09:34:16.803Z,4.57
2018-01-22T09:36:51.056Z,4.70
2018-01-22T09:39:26.254Z,4.74
2018-01-22T09:42:00.918Z,4.73
2018-01-22T09:44:35.791Z,4.77
2018-01-22T09:47:10.675Z,4.68
2018-01-22T09:49:45.788Z,4.49
2018-01-22T09:52:20.987Z,4.32
2018-01-22T09:54:56.351Z,4.23
2018-01-22T09:57:31.023Z,4.20
2018-01-22T10:00:05.934Z,4.19
2018-01-22T10:02:40.321Z,4.15
2018-01-22T10:05:15.816Z,4.20
2018-01-22T10:07:50.325Z,4.19
2018-01-22T10:10:25.206Z,4.22
2018-01-22T10:13:00.412Z,4.26
2018-01-22T10:15:34.987Z,4.31
2018-01-22T10:18:09.438Z,4.35
2018-01-22T10:20:44.819Z,4.40
2018-01-22T10:23:19.894Z,4.42
2018-01-22T10:25:54.339Z,4.46
2018-01-22T10:28:28.867Z,4.52
2018-01-22T10:31:04.118Z,4.60
2018-01-22T10:33:39.114Z,4.60
2018-01-22T10:36:14.354Z,4.55
2018-01-22T10:38:49.771Z,4.68
2018-01-22T10:41:24.978Z,4.77
2018-01-22T10:44:00.476Z,4.80
2018-01-22T10:46:35.446Z,4.79
2018-01-22T10:49:10.430Z,4.80
2018-01-22T10:51:45.982Z,4.80
2018-01-22T10:54:20.815Z,4.83
2018-01-22T10:56:56.032Z,4.95
2018-01-22T10:59:30.894Z,4.91
2018-01-22T11:02:06.255Z,4.87
2018-01-22T11:04:41.125Z,4.95
2018-01-22T11:07:16.009Z,5.00
2018-01-22T11:09:50.980Z,5.05
2018-01-22T11:12:25.943Z,5.05
2018-01-22T11:15:00.791Z,5.10
2018-01-22T11:17:35.305Z,5.16
2018-01-22T11:20:10.266Z,5.16
2018-01-22T11:22:45.034Z,5.25
2018-01-22T11:25:20.140Z,5.25
2018-01-22T11:27:55.272Z,5.31
2018-01-22T11:30:30.190Z,5.32
2018-01-22T11:33:05.779Z,5.37
2018-01-22T11:35:40.567Z,5.42
2018-01-22T11:38:15.557Z,5.49
2018-01-22T11:40:51.286Z,5.53
2018-01-22T11:43:25.934Z,5.56
2018-01-22T11:46:01.205Z,5.55
2018-01-22T11:48:35.784Z,5.61
2018-01-22T11:51:11.160Z,5.63
2018-01-22T11:53:45.546Z,5.63
2018-01-22T11:56:20.069Z,5.62
2018-01-22T11:58:54.570Z,5.63
2018-01-22T12:01:29.527Z,5.65
2018-01-22T12:04:03.922Z,5.67
2018-01-22T12:06:39.235Z,5.68
2018-01-22T12:09:14.319Z,5.70
2018-01-22T12:11:49.506Z,5.79
2018-01-22T12:14:25.286Z,5.85
2018-01-22T12:17:00.641Z,5.89
2018-01-22T12:19:35.297Z,5.87
2018-01-22T12:22:10.379Z,5.90
2018-01-22T12:24:45.067Z,5.90
2018-01-22T12:27:20.134Z,5.88
2018-01-22T12:29:55.271Z,5.87
2018-01-22T12:32:30.070Z,5.83
2018-01-22T12:35:04.613Z,5.81
2018-01-22T12:37:39.804Z,5.78
2018-01-22T12:40:14.540Z,5.77
2018-01-22T12:42:49.601Z,5.75
2018-01-22T12:45:24.627Z,5.78
2018-01-22T12:48:00.772Z,5.85
2018-01-22T12:50:35.392Z,5.90
2018-01-22T12:53:10.884Z,5.95
2018-01-22T12:55:45.810Z,5.92
2018-01-22T12:58:20.915Z,5.95
2018-01-22T13:00:56.407Z,5.94
2018-01-22T13:03:31.352Z,6.03
2018-01-22T13:06:06.670Z,6.09
2018-01-22T13:08:42.027Z,6.10
2018-01-22T13:11:17.206Z,6.13
2018-01-22T13:13:52.631Z,6.19
2018-01-22T13:16:26.710Z,6.23
2018-01-22T13:19:01.579Z,6.19
2018-01-22T13:21:36.470Z,6.20
2018-01-22T13:24:11.891Z,6.21
2018-01-22T13:26:46.419Z,6.24
2018-01-22T13:29:20.798Z,6.28
2018-01-22T13:31:55.829Z,6.29
2018-01-22T13:34:30.594Z,6.36
2018-01-22T13:37:05.496Z,6.42
2018-01-22T13:39:40.562Z,6.45
2018-01-22T13:42:15.470Z,6.51
2018-01-22T13:44:50.354Z,6.59
2018-01-22T13:47:24.931Z,6.59
2018-01-22T13:50:00.806Z,6.60
2018-01-22T13:52:35.843Z,6.68
2018-01-22T13:55:10.608Z,6.70
2018-01-22T13:57:45.632Z,6.72
2018-01-22T14:00:20.939Z,6.76
2018-01-22T14:02:56.322Z,6.78
2018-01-22T14:05:30.699Z,6.82
2018-01-22T14:08:05.938Z,6.89
2018-01-22T14:10:40.937Z,6.89
2018-01-22T14:13:15.867Z,6.85
2018-01-22T14:15:50.990Z,6.83
2018-01-22T14:18:26.632Z,6.82
2018-01-22T14:21:01.407Z,6.86
2018-01-22T14:23:36.518Z,6.86
2018-01-22T14:26:10.706Z,6.96
2018-01-22T14:28:45.874Z,7.01
2018-01-22T14:31:21.555Z,7.01
2018-01-22T14:33:55.834Z,7.04
2018-01-22T14:36:30.655Z,7.05
2018-01-22T14:39:05.368Z,7.09
2018-01-22T14:41:40.097Z,7.12
2018-01-22T14:44:15.950Z,7.17
2018-01-22T14:46:50.794Z,7.21
2018-01-22T14:49:25.732Z,7.25
2018-01-22T14:52:01.689Z,7.20
2018-01-22T14:54:36.720Z,7.20
2018-01-22T14:57:11.704Z,7.20
2018-01-22T14:59:46.783Z,7.20
2018-01-22T15:02:21.900Z,7.23
2018-01-22T15:04:56.299Z,7.17
2018-01-22T15:07:31.763Z,7.14
2018-01-22T15:10:07.014Z,7.15
2018-01-22T15:12:41.923Z,7.14
2018-01-22T15:15:17.753Z,7.17
2018-01-22T15:17:52.812Z,7.18
2018-01-22T15:20:27.798Z,7.16
2018-01-22T15:23:03.039Z,7.16
2018-01-22T15:25:37.949Z,7.16
2018-01-22T15:28:12.714Z,7.15
2018-01-22T15:30:47.900Z,7.20
2018-01-22T15:33:22.988Z,7.23
2018-01-22T15:35:58.283Z,7.22
2018-01-22T15:38:33.704Z,7.23
2018-01-22T15:41:09.075Z,7.23
2018-01-22T15:43:44.538Z,7.19
2018-01-22T15:46:19.862Z,7.20
2018-01-22T15:48:54.916Z,7.23
2018-01-22T15:51:29.504Z,7.28
2018-01-22T15:54:04.258Z,7.31
2018-01-22T15:56:39.035Z,7.33
2018-01-22T15:59:14.123Z,7.30
2018-01-22T16:01:49.342Z,7.27
2018-01-22T16:04:24.838Z,7.29
2018-01-22T16:07:01.167Z,7.26
2018-01-22T16:09:36.044Z,7.26
2018-01-22T16:12:11.131Z,7.24
2018-01-22T16:14:46.191Z,7.28
2018-01-22T16:17:21.213Z,7.29
2018-01-22T16:19:55.870Z,7.36
2018-01-22T16:22:30.843Z,7.38
2018-01-22T16:25:06.099Z,7.37
2018-01-22T16:27:40.988Z,7.35
2018-01-22T16:30:16.735Z,7.36
2018-01-22T16:32:51.117Z,7.39
2018-01-22T16:35:26.302Z,7.39
2018-01-22T16:38:02.698Z,7.36
2018-01-22T16:40:38.094Z,7.31
2018-01-22T16:43:13.174Z,7.30
2018-01-22T16:45:48.142Z,7.33
2018-01-22T16:48:23.308Z,7.32
2018-01-22T16:50:58.032Z,7.30
2018-01-22T16:53:32.965Z,7.27
2018-01-22T16:56:08.361Z,7.28
2018-01-22T16:58:43.661Z,7.30
2018-01-22T17:01:19.178Z,7.30
2018-01-22T17:03:53.949Z,7.30
2018-01-22T17:06:29.389Z,7.33
2018-01-22T17:09:03.478Z,7.35
2018-01-22T17:11:38.203Z,7.42
2018-01-22T17:14:13.443Z,7.43
2018-01-22T17:16:48.961Z,7.40
2018-01-22T17:19:24.104Z,7.41
2018-01-22T17:21:59.311Z,7.42
2018-01-22T17:24:34.052Z,7.42
2018-01-22T17:27:09.344Z,7.46
2018-01-22T17:29:45.022Z,7.50
2018-01-22T17:32:20.281Z,7.54
2018-01-22T17:34:55.221Z,7.53
2018-01-22T17:37:30.071Z,7.55
2018-01-22T17:40:05.043Z,7.58
2018-01-22T17:42:40.174Z,7.56
2018-01-22T17:45:15.797Z,7.56
2018-01-22T17:47:50.513Z,7.58
2018-01-22T17:50:25.222Z,7.59
2018-01-22T17:53:01.576Z,7.59
2018-01-22T17:55:36.219Z,7.65
2018-01-22T17:58:11.263Z,7.63
2018-01-22T18:00:46.430Z,7.62
2018-01-22T18:03:22.016Z,7.58
2018-01-22T18:05:56.718Z,7.59
2018-01-22T18:08:31.306Z,7.59
2018-01-22T18:11:06.388Z,7.64
2018-01-22T18:13:41.271Z,7.64
2018-01-22T18:16:16.253Z,7.60
2018-01-22T18:18:51.210Z,7.55
2018-01-22T18:21:26.281Z,7.53
2018-01-22T18:24:01.591Z,7.56
2018-01-22T18:26:36.676Z,7.59
2018-01-22T18:29:11.304Z,7.61
2018-01-22T18:31:46.632Z,7.65
2018-01-22T18:34:21.789Z,7.67
2018-01-22T18:36:56.510Z,7.70
2018-01-22T18:39:31.619Z,7.70
2018-01-22T18:42:06.638Z,7.72
2018-01-22T18:44:41.599Z,7.67
2018-01-22T18:47:17.111Z,7.65
2018-01-22T18:49:52.216Z,7.66
2018-01-22T18:52:27.294Z,7.64
2018-01-22T18:55:02.443Z,7.67
2018-01-22T18:57:37.112Z,7.69
2018-01-22T19:00:12.399Z,7.69
2018-01-22T19:02:47.449Z,7.69
2018-01-22T19:05:22.422Z,7.73
2018-01-22T19:07:57.177Z,7.77
2018-01-22T19:10:34.315Z,7.75
2018-01-22T19:13:09.561Z,7.73
2018-01-22T19:15:45.340Z,7.70
2018-01-22T19:18:20.346Z,7.72
2018-01-22T19:20:54.926Z,7.71
2018-01-22T19:23:30.035Z,7.68
2018-01-22T19:26:05.422Z,7.67
2018-01-22T19:28:40.595Z,7.66
2018-01-22T19:31:15.347Z,7.61
2018-01-22T19:33:50.627Z,7.61
2018-01-22T19:36:26.366Z,7.66
2018-01-22T19:39:01.690Z,7.68
2018-01-22T19:41:36.403Z,7.69
2018-01-22T19:44:11.655Z,7.76
2018-01-22T19:46:46.535Z,7.92
2018-01-22T19:49:21.046Z,8.05
2018-01-22T19:51:56.401Z,8.11
2018-01-22T19:54:33.027Z,8.22
2018-01-22T19:57:08.595Z,8.20
2018-01-22T19:59:43.047Z,8.25
2018-01-22T20:02:17.387Z,8.41
2018-01-22T20:04:52.583Z,8.47
2018-01-22T20:07:27.692Z,8.43
2018-01-22T20:10:02.836Z,8.33
2018-01-22T20:12:38.013Z,8.23
2018-01-22T20:15:12.378Z,8.15
2018-01-22T20:17:47.070Z,8.13
2018-01-22T20:20:22.582Z,8.07
2018-01-22T20:22:57.775Z,7.97
2018-01-22T20:25:32.563Z,7.78
2018-01-22T20:28:07.812Z,7.73
2018-01-22T20:30:42.230Z,7.67
2018-01-22T20:33:17.819Z,7.66
2018-01-22T20:35:53.370Z,7.67
2018-01-22T20:38:28.627Z,7.70
2018-01-22T20:41:03.799Z,7.70
2018-01-22T20:43:39.321Z,7.68
2018-01-22T20:46:14.826Z,7.70
2018-01-22T20:48:49.695Z,7.71
2018-01-22T20:51:24.882Z,7.70
2018-01-22T20:53:59.591Z,7.69
2018-01-22T20:56:34.978Z,7.66
2018-01-22T20:59:10.632Z,7.66
2018-01-22T21:01:45.985Z,7.68
2018-01-22T21:04:21.570Z,7.65
2018-01-22T21:06:56.661Z,7.65
2018-01-22T21:09:31.847Z,7.67
2018-01-22T21:12:06.851Z,7.73
2018-01-22T21:14:42.446Z,7.67
2018-01-22T21:17:17.928Z,7.59
2018-01-22T21:19:52.786Z,7.63
2018-01-22T21:22:27.974Z,7.65
2018-01-22T21:25:03.046Z,7.68
2018-01-22T21:27:39.821Z,7.68
2018-01-22T21:30:14.754Z,7.65
2018-01-22T21:32:49.788Z,7.66
2018-01-22T21:35:24.771Z,7.67
2018-01-22T21:38:00.313Z,7.66
2018-01-22T21:40:35.731Z,7.67
2018-01-22T21:43:11.311Z,7.63
2018-01-22T21:45:46.042Z,7.67
2018-01-22T21:48:20.717Z,7.65
2018-01-22T21:50:55.824Z,7.61
2018-01-22T21:53:30.817Z,7.65
2018-01-22T21:56:05.940Z,7.65
2018-01-22T21:58:41.187Z,7.67
2018-01-22T22:01:15.950Z,7.65
2018-01-22T22:03:50.715Z,7.63
2018-01-22T22:09:23.088Z,7.57
2018-01-22T22:14:34.923Z,7.56
2018-01-22T22:17:10.014Z,7.59
2018-01-22T22:19:45.003Z,7.85
2018-01-22T22:22:20.185Z,8.00
2018-01-22T22:24:55.153Z,8.00
2018-01-22T22:27:30.666Z,7.85
2018-01-22T22:30:05.342Z,7.77
2018-01-22T22:32:40.198Z,7.67
2018-01-22T22:35:15.291Z,7.58
2018-01-22T22:37:50.133Z,7.60
2018-01-22T22:40:25.080Z,7.62
2018-01-22T22:43:00.359Z,7.64
2018-01-22T22:45:35.255Z,7.63
2018-01-22T22:48:10.150Z,7.63
2018-01-22T22:50:44.882Z,7.64
2018-01-22T22:53:20.247Z,7.68
2018-01-22T22:55:55.805Z,7.69
2018-01-22T22:58:30.849Z,7.70
2018-01-22T23:01:06.122Z,7.72
2018-01-22T23:03:40.983Z,7.72
2018-01-22T23:06:16.150Z,7.67
2018-01-22T23:08:50.981Z,7.65
2018-01-22T23:11:25.824Z,7.64
2018-01-22T23:14:02.180Z,7.62
2018-01-22T23:16:36.915Z,7.59
2018-01-22T23:19:11.596Z,7.60
2018-01-22T23:21:46.359Z,7.61
2018-01-22T23:24:21.456Z,7.66
2018-01-22T23:26:56.457Z,7.69
2018-01-22T23:29:31.225Z,7.72
2018-01-22T23:32:06.517Z,7.71
2018-01-22T23:34:41.994Z,7.70
2018-01-22T23:37:17.139Z,7.65
2018-01-22T23:39:52.034Z,7.57
2018-01-22T23:42:27.003Z,7.62
2018-01-22T23:45:02.400Z,7.70
2018-01-22T23:47:37.024Z,7.72
2018-01-22T23:50:12.046Z,7.72
2018-01-22T23:52:47.030Z,7.69
2018-01-22T23:55:22.040Z,7.63
2018-01-22T23:57:57.076Z,7.64
